Time;durP1;ratioP1;P1;durP2;ratioP2;P2;SDS_P1;SDS_P2;PMS_P1;PMS_P2;Temp;Humidity;BMP_temperature;BMP_pressure;BME280_temperature;BME280_humidity;BME280_pressure;Samples;Min_cycle;Max_cycle;Signal;HPM_P1;HPM_P2
2022/07/03 00:00:38;;;;;;;6.23;2.50;;;-8.80;99.90;;;;;;5075431;28;20167;-83
2022/07/03 00:03:03;;;;;;;3.77;1.60;;;-12.00;99.90;;;;;;5075509;28;20166;-79
2022/07/03 00:05:29;;;;;;;5.43;2.50;;;-8.80;99.90;;;;;;5075163;28;20586;-74
2022/07/03 00:07:55;;;;;;;5.20;3.70;;;-7.40;99.90;;;;;;5075412;28;20177;-80
2022/07/03 00:10:21;;;;;;;4.67;2.43;;;-7.80;99.90;;;;;;5075456;28;20571;-83
2022/07/03 00:12:47;;;;;;;4.83;2.40;;;-9.50;99.90;;;;;;5075333;28;20171;-78
2022/07/03 00:15:12;;;;;;;11.20;2.80;;;-7.70;99.90;;;;;;5075309;28;20167;-77
2022/07/03 00:17:38;;;;;;;15.57;2.67;;;-10.30;99.90;;;;;;5075233;28;20590;-84
2022/07/03 00:20:04;;;;;;;4.53;2.93;;;-10.00;99.90;;;;;;5074931;28;20208;-79
2022/07/03 00:22:33;;;;;;;4.87;2.87;;;-8.50;99.90;;;;;;5075192;28;20164;-72
2022/07/03 00:25:02;;;;;;;4.17;2.33;;;-9.50;99.90;;;;;;5075203;28;20193;-82
2022/07/03 00:27:32;;;;;;;3.37;1.80;;;-7.30;99.90;;;;;;5075070;28;20176;-81
2022/07/03 00:30:00;;;;;;;3.60;1.73;;;-7.40;99.90;;;;;;5075093;28;20193;-73
2022/07/03 00:32:27;;;;;;;2.60;1.77;;;-11.90;99.90;;;;;;5074841;28;20164;-83
2022/07/03 00:34:55;;;;;;;6.07;1.60;;;-7.90;99.90;;;;;;5075169;28;20499;-82
2022/07/03 00:37:22;;;;;;;6.13;2.00;;;-12.40;99.90;;;;;;5077291;28;20324;-73
2022/07/03 00:39:48;;;;;;;5.50;2.33;;;-9.70;99.90;;;;;;5078764;28;20206;-79
2022/07/03 00:42:15;;;;;;;7.20;2.13;;;-9.50;99.90;;;;;;5077884;28;20178;-80
2022/07/03 00:44:46;;;;;;;5.23;1.57;;;-7.50;99.90;;;;;;5079133;28;20160;-75
2022/07/03 00:47:13;;;;;;;5.17;1.60;;;-6.40;99.90;;;;;;5077558;28;20270;-75
2022/07/03 00:49:40;;;;;;;3.90;1.10;;;-5.40;99.90;;;;;;5078817;28;20252;-77
2022/07/03 00:52:09;;;;;;;2.93;1.50;;;-6.10;99.90;;;;;;5077541;28;20172;-84
2022/07/03 00:54:35;;;;;;;7.53;1.63;;;-6.50;99.90;;;;;;5078764;28;20175;-83
2022/07/03 00:57:02;;;;;;;9.77;1.60;;;-4.40;99.90;;;;;;5077502;28;20178;-77
2022/07/03 00:59:29;;;;;;;3.57;1.57;;;-4.10;99.90;;;;;;5077621;28;20248;-83
2022/07/03 01:02:29;;;;;;;1.03;1.03;;;-5.80;99.90;;;;;;5078240;28;20179;-82
2022/07/03 01:05:36;;;;;;;1.60;1.00;;;-5.10;99.90;;;;;;5062551;28;20183;-82
2022/07/03 01:08:15;;;;;;;1.97;1.30;;;-6.80;99.90;;;;;;5078355;28;20533;-83
2022/07/03 01:11:07;;;;;;;3.83;1.80;;;-6.10;99.90;;;;;;5078536;28;20195;-81
2022/07/03 01:13:45;;;;;;;4.33;1.00;;;-5.00;99.90;;;;;;5077522;28;20182;-77
2022/07/03 01:16:14;;;;;;;1.23;0.80;;;-5.80;99.90;;;;;;5078126;28;20467;-75
2022/07/03 01:18:48;;;;;;;1.90;1.00;;;-4.30;99.90;;;;;;5078241;28;20591;-79
2022/07/03 01:21:34;;;;;;;1.57;1.00;;;-6.20;99.90;;;;;;5078321;28;20244;-79
2022/07/03 01:24:35;;;;;;;1.47;0.90;;;-6.80;99.90;;;;;;5078125;28;20262;-80
2022/07/03 01:27:07;;;;;;;2.67;1.53;;;-6.00;99.90;;;;;;5078308;28;20265;-80
2022/07/03 01:29:57;;;;;;;2.27;1.30;;;-4.90;99.90;;;;;;5078324;28;20210;-82
2022/07/03 01:32:27;;;;;;;1.73;1.27;;;-6.70;99.90;;;;;;5077902;28;20177;-81
2022/07/03 01:34:55;;;;;;;2.70;1.33;;;-7.30;99.90;;;;;;5078355;28;20172;-79
2022/07/03 01:37:25;;;;;;;2.30;1.33;;;-4.30;99.90;;;;;;5077922;28;20187;-82
2022/07/03 01:39:53;;;;;;;1.30;1.20;;;-3.90;99.90;;;;;;5078022;28;20218;-75
2022/07/03 01:42:19;;;;;;;2.50;1.53;;;-4.20;99.90;;;;;;5077950;28;20198;-81
2022/07/03 01:44:48;;;;;;;1.00;1.00;;;-7.20;99.90;;;;;;5077753;28;20174;-77
2022/07/03 01:47:15;;;;;;;1.07;1.07;;;-9.90;99.50;;;;;;5077784;28;20159;-83
2022/07/03 01:49:42;;;;;;;0.80;0.80;;;-7.30;99.90;;;;;;5076615;28;20624;-78
2022/07/03 01:52:11;;;;;;;3.40;0.90;;;-10.00;99.10;;;;;;5076648;28;20487;-81
2022/07/03 01:54:39;;;;;;;2.57;1.07;;;-6.70;99.90;;;;;;5077626;28;20168;-81
2022/07/03 01:57:08;;;;;;;1.30;1.20;;;-7.20;99.90;;;;;;5077761;28;20523;-75
2022/07/03 01:59:35;;;;;;;5.40;1.47;;;-10.70;99.90;;;;;;5077074;28;20199;-74
2022/07/03 02:02:29;;;;;;;1.67;1.20;;;-9.00;99.90;;;;;;5076310;28;20167;-82
2022/07/03 02:05:25;;;;;;;2.87;1.27;;;-8.20;99.90;;;;;;5077122;28;20562;-83
2022/07/03 02:08:00;;;;;;;1.33;1.20;;;-11.40;99.90;;;;;;5077033;28;20182;-84
2022/07/03 02:10:33;;;;;;;2.27;1.00;;;-12.40;99.90;;;;;;5077245;28;20182;-83
2022/07/03 02:13:11;;;;;;;1.80;1.70;;;-13.20;99.90;;;;;;5077091;28;20168;-84
2022/07/03 02:15:42;;;;;;;1.97;1.30;;;-10.80;99.90;;;;;;5076716;28;20167;-83
2022/07/03 02:18:27;;;;;;;2.70;1.67;;;-8.10;99.90;;;;;;5076829;28;20207;-83
2022/07/03 02:21:07;;;;;;;7.30;1.97;;;-9.90;99.90;;;;;;5076978;28;20167;-85
2022/07/03 02:23:39;;;;;;;1.73;1.30;;;-12.70;99.90;;;;;;5076878;28;20274;-84
2022/07/03 02:26:07;;;;;;;3.17;2.63;;;-14.50;99.90;;;;;;5076808;28;20168;-83
2022/07/03 02:29:03;;;;;;;1.73;1.43;;;-14.30;99.90;;;;;;5076460;28;20171;-75
2022/07/03 02:31:43;;;;;;;1.37;1.27;;;-12.30;99.90;;;;;;5076830;28;20172;-84
2022/07/03 02:34:16;;;;;;;3.07;1.73;;;-14.50;99.90;;;;;;5076634;28;20167;-83
2022/07/03 02:36:49;;;;;;;4.70;2.27;;;-14.90;99.90;;;;;;5075508;28;20256;-83
2022/07/03 02:39:26;;;;;;;3.50;2.03;;;-10.00;99.90;;;;;;5076494;28;20206;-75
2022/07/03 02:42:06;;;;;;;3.70;1.97;;;-8.70;99.90;;;;;;5075440;28;20469;-75
2022/07/03 02:44:45;;;;;;;3.07;1.87;;;-8.70;99.90;;;;;;5076275;28;20250;-76
2022/07/03 02:47:14;;;;;;;3.87;1.90;;;-10.70;99.90;;;;;;5076502;28;20559;-73
2022/07/03 02:49:49;;;;;;;2.10;1.60;;;-12.10;99.90;;;;;;5076324;28;20324;-82
2022/07/03 02:52:41;;;;;;;2.47;1.40;;;-13.20;99.90;;;;;;5074889;28;20179;-85
2022/07/03 02:55:31;;;;;;;5.83;2.27;;;-11.40;99.90;;;;;;5075699;28;20290;-82
2022/07/03 02:58:06;;;;;;;2.53;2.37;;;-10.90;99.90;;;;;;5074915;28;20197;-85
2022/07/03 03:00:37;;;;;;;3.67;1.97;;;-10.20;99.90;;;;;;5075561;28;20167;-82
2022/07/03 03:03:03;;;;;;;7.63;2.50;;;-7.40;99.90;;;;;;5076101;28;20209;-80
2022/07/03 03:06:02;;;;;;;6.67;2.10;;;-11.40;99.90;;;;;;5076094;28;20164;-76
2022/07/03 03:08:42;;;;;;;3.57;1.83;;;-10.10;99.90;;;;;;5052960;28;20590;-80
2022/07/03 03:11:19;;;;;;;2.20;1.43;;;-11.50;99.90;;;;;;5075195;28;20163;-77
2022/07/03 03:13:50;;;;;;;3.30;1.87;;;-11.80;99.90;;;;;;5075879;28;20464;-77
2022/07/03 03:16:16;;;;;;;2.70;1.23;;;-12.50;99.90;;;;;;5075833;28;20270;-78
2022/07/03 03:18:42;;;;;;;2.23;1.40;;;-15.20;99.90;;;;;;5075938;28;20632;-82
2022/07/03 03:21:15;;;;;;;2.30;1.33;;;-11.60;99.90;;;;;;5075963;28;20168;-84
2022/07/03 03:23:49;;;;;;;2.57;1.30;;;-10.30;99.90;;;;;;5076037;28;20206;-83
2022/07/03 03:26:28;;;;;;;3.63;1.63;;;-8.50;99.90;;;;;;5075468;28;20515;-83
2022/07/03 03:28:54;;;;;;;1.27;1.17;;;-9.10;99.90;;;;;;5076780;28;20246;-83
2022/07/03 03:31:21;;;;;;;4.03;1.63;;;-7.60;99.90;;;;;;5076399;28;20203;-83
2022/07/03 03:33:50;;;;;;;1.70;1.60;;;-8.80;99.90;;;;;;5075255;28;20519;-78
2022/07/03 03:36:18;;;;;;;4.37;1.50;;;-9.30;99.90;;;;;;5074900;28;20190;-83
2022/07/03 03:38:44;;;;;;;1.70;1.40;;;-9.40;99.90;;;;;;5076675;28;20213;-84
2022/07/03 03:41:11;;;;;;;2.20;1.43;;;-10.70;99.90;;;;;;5075718;28;20168;-71
2022/07/03 03:43:37;;;;;;;2.23;1.30;;;-11.30;99.90;;;;;;5075667;28;20163;-72
2022/07/03 03:46:03;;;;;;;5.63;1.57;;;-14.10;99.90;;;;;;5075732;28;20160;-69
2022/07/03 03:48:34;;;;;;;3.37;1.70;;;-12.20;99.90;;;;;;5076190;28;20163;-71
2022/07/03 03:51:01;;;;;;;3.07;1.77;;;-12.50;99.90;;;;;;5076123;28;20171;-69
2022/07/03 03:53:28;;;;;;;3.70;1.40;;;-14.00;99.90;;;;;;5076152;28;20207;-71
2022/07/03 03:56:05;;;;;;;3.17;1.50;;;-14.10;99.90;;;;;;5076138;28;20708;-69
2022/07/03 03:58:33;;;;;;;1.73;1.10;;;-14.50;99.90;;;;;;5075982;28;20490;-73
2022/07/03 04:01:00;;;;;;;1.77;1.50;;;-12.60;99.90;;;;;;5075485;28;20196;-85
2022/07/03 04:03:27;;;;;;;1.67;1.57;;;-13.90;99.90;;;;;;5074212;28;20178;-79
2022/07/03 04:05:53;;;;;;;1.50;1.40;;;-8.70;99.90;;;;;;5075195;28;20262;-81
2022/07/03 04:08:20;;;;;;;2.40;1.40;;;-10.70;99.90;;;;;;5075141;28;20487;-82
2022/07/03 04:10:47;;;;;;;2.20;1.53;;;-9.60;99.90;;;;;;5076825;28;20507;-81
2022/07/03 04:13:14;;;;;;;1.40;1.30;;;-9.30;99.90;;;;;;5079321;28;20176;-76
2022/07/03 04:15:40;;;;;;;9.83;1.83;;;-12.20;99.90;;;;;;5079261;28;20235;-76
2022/07/03 04:18:06;;;;;;;4.70;1.30;;;-11.00;99.90;;;;;;5079287;28;20244;-83
2022/07/03 04:20:32;;;;;;;3.27;1.23;;;-10.40;99.90;;;;;;5078216;28;20562;-80
2022/07/03 04:22:59;;;;;;;2.40;1.50;;;-11.30;99.90;;;;;;5079257;28;20168;-80
2022/07/03 04:25:25;;;;;;;3.70;1.50;;;-9.60;99.90;;;;;;5077865;28;20591;-84
2022/07/03 04:27:51;;;;;;;1.17;1.07;;;-8.70;99.90;;;;;;5079161;28;20217;-81
2022/07/03 04:30:17;;;;;;;2.70;1.40;;;-12.50;99.90;;;;;;5079172;28;20167;-81
2022/07/03 04:32:44;;;;;;;1.40;1.20;;;-8.30;99.90;;;;;;5078942;28;20455;-78
2022/07/03 04:35:10;;;;;;;1.57;1.47;;;-10.80;99.90;;;;;;5078225;28;20171;-78
2022/07/03 04:37:36;;;;;;;2.40;1.13;;;-11.10;99.90;;;;;;5078769;28;20316;-75
2022/07/03 04:40:02;;;;;;;1.80;1.40;;;-8.60;99.90;;;;;;5078707;28;20176;-69
2022/07/03 04:42:28;;;;;;;2.40;1.13;;;-7.80;99.90;;;;;;5078943;28;20171;-72
2022/07/03 04:44:54;;;;;;;2.50;2.17;;;-10.70;99.90;;;;;;5078962;28;20171;-72
2022/07/03 04:47:20;;;;;;;2.90;1.73;;;-8.90;99.90;;;;;;5078746;28;20167;-79
2022/07/03 04:49:46;;;;;;;2.00;1.27;;;-8.50;99.90;;;;;;5078586;28;20187;-74
2022/07/03 04:52:12;;;;;;;1.90;1.50;;;-10.80;99.90;;;;;;5078592;28;20163;-78
2022/07/03 04:54:38;;;;;;;1.27;1.27;;;-14.70;99.90;;;;;;5078484;28;20167;-70
2022/07/03 04:57:05;;;;;;;2.97;1.53;;;-13.40;99.90;;;;;;5078547;28;20477;-73
2022/07/03 04:59:31;;;;;;;1.63;1.30;;;-15.40;99.90;;;;;;5078525;28;20256;-73
2022/07/03 05:01:56;;;;;;;3.50;1.20;;;-16.30;99.90;;;;;;5078513;28;20167;-72
2022/07/03 05:04:22;;;;;;;2.23;1.30;;;-13.90;99.90;;;;;;5078487;28;20247;-74
2022/07/03 05:06:48;;;;;;;2.23;1.37;;;-13.60;99.90;;;;;;5077125;28;20183;-81
2022/07/03 05:09:14;;;;;;;1.90;1.80;;;-15.80;99.90;;;;;;5078145;28;20171;-78
2022/07/03 05:11:41;;;;;;;2.60;1.50;;;-12.30;99.90;;;;;;5078282;28;20190;-71
2022/07/03 05:14:07;;;;;;;1.20;1.07;;;-9.50;99.90;;;;;;5078574;28;20643;-77
2022/07/03 05:16:33;;;;;;;1.93;1.67;;;-15.50;99.90;;;;;;5078266;28;20171;-69
2022/07/03 05:18:59;;;;;;;2.37;1.10;;;-10.30;99.90;;;;;;5078061;28;20187;-68
2022/07/03 05:21:25;;;;;;;1.60;1.37;;;-10.20;99.90;;;;;;5077673;28;20591;-68
2022/07/03 05:23:51;;;;;;;1.83;1.30;;;-9.30;99.90;;;;;;5076029;28;20171;-67
2022/07/03 05:26:17;;;;;;;2.23;1.40;;;-10.30;99.90;;;;;;5078168;28;20574;-70
2022/07/03 05:28:44;;;;;;;3.70;1.83;;;-12.00;99.90;;;;;;5076776;28;20199;-73
2022/07/03 05:31:10;;;;;;;1.97;1.77;;;-12.70;99.90;;;;;;5071459;28;20183;-69
2022/07/03 05:33:37;;;;;;;4.67;2.77;;;-15.30;99.90;;;;;;5057536;28;20178;-69
2022/07/03 05:36:03;;;;;;;3.27;1.80;;;-11.30;99.90;;;;;;5057679;28;20167;-71
2022/07/03 05:41:15;;;;;;;2.27;2.17;;;-11.10;99.90;;;;;;5069818;28;20595;-69
2022/07/03 05:43:41;;;;;;;3.70;2.03;;;-7.20;99.90;;;;;;5074984;28;20195;-73
2022/07/03 05:46:07;;;;;;;2.43;1.70;;;-7.40;99.90;;;;;;5074674;28;20163;-68
2022/07/03 05:48:33;;;;;;;4.53;2.83;;;-8.10;99.90;;;;;;5075234;28;20215;-70
2022/07/03 05:50:58;;;;;;;4.93;2.03;;;-8.10;99.90;;;;;;5075335;28;20544;-70
2022/07/03 05:53:24;;;;;;;3.67;2.60;;;-7.70;99.90;;;;;;5074099;28;20171;-70
2022/07/03 05:55:50;;;;;;;2.07;1.90;;;-8.90;99.90;;;;;;5075387;28;20590;-73
2022/07/03 05:58:16;;;;;;;1.90;1.80;;;-6.60;99.90;;;;;;5075262;28;20206;-72
2022/07/03 06:00:42;;;;;;;4.40;2.13;;;-6.90;99.90;;;;;;5076683;28;20333;-70
2022/07/03 06:03:09;;;;;;;2.60;1.73;;;-8.90;99.90;;;;;;5077281;28;20228;-68
2022/07/03 06:05:35;;;;;;;3.30;1.93;;;-8.40;99.90;;;;;;5057212;28;20183;-75
2022/07/03 06:08:01;;;;;;;4.10;1.97;;;-7.30;99.90;;;;;;5055583;28;20171;-68
2022/07/03 06:10:28;;;;;;;2.73;2.53;;;-7.10;99.90;;;;;;5056895;28;20175;-70
2022/07/03 06:12:54;;;;;;;2.00;1.90;;;-8.70;99.90;;;;;;5056769;28;20252;-71
2022/07/03 06:15:20;;;;;;;2.50;2.03;;;-11.60;99.90;;;;;;5056903;28;20168;-69
2022/07/03 06:17:46;;;;;;;2.20;2.00;;;-9.90;99.90;;;;;;5060465;28;20172;-75
2022/07/03 06:20:13;;;;;;;4.27;2.47;;;-14.40;99.90;;;;;;5064499;28;20505;-69
2022/07/03 06:22:39;;;;;;;7.23;1.63;;;-16.80;99.90;;;;;;5067219;28;20160;-75
2022/07/03 06:25:06;;;;;;;3.90;2.23;;;-13.40;99.90;;;;;;5065828;28;20243;-74
2022/07/03 06:27:32;;;;;;;2.10;1.90;;;-15.40;99.90;;;;;;5064973;28;20222;-76
2022/07/03 06:29:58;;;;;;;2.77;2.57;;;-12.90;99.90;;;;;;5067102;28;20180;-78
2022/07/03 06:32:23;;;;;;;2.13;1.97;;;-12.50;99.90;;;;;;5064838;28;20164;-74
2022/07/03 06:34:49;;;;;;;3.57;2.10;;;-9.70;99.90;;;;;;5066273;28;20226;-78
2022/07/03 06:37:17;;;;;;;1.60;1.50;;;-9.30;99.90;;;;;;5066751;28;20279;-72
2022/07/03 06:39:43;;;;;;;2.47;1.50;;;-12.90;99.90;;;;;;5064790;28;20641;-76
2022/07/03 06:42:09;;;;;;;2.13;2.03;;;-12.30;99.90;;;;;;5066634;28;20175;-72
2022/07/03 06:44:34;;;;;;;1.87;1.77;;;-11.70;99.90;;;;;;5066331;28;20204;-75
2022/07/03 06:47:03;;;;;;;2.37;2.00;;;-10.20;99.90;;;;;;5063750;28;20168;-76
2022/07/03 06:49:32;;;;;;;2.37;2.27;;;-9.20;99.90;;;;;;5064787;28;20198;-70
2022/07/03 06:51:58;;;;;;;4.10;2.40;;;-11.20;99.90;;;;;;5066530;28;20176;-76
2022/07/03 06:54:23;;;;;;;2.60;1.90;;;-7.60;99.90;;;;;;5064672;28;20202;-77
2022/07/03 06:56:49;;;;;;;4.77;1.47;;;-8.00;99.90;;;;;;5066098;28;20455;-82
2022/07/03 06:59:15;;;;;;;1.77;1.67;;;-5.00;99.90;;;;;;5065973;28;20227;-70
2022/07/03 07:01:41;;;;;;;2.93;1.40;;;-5.50;99.90;;;;;;5064741;28;20213;-74
2022/07/03 07:04:08;;;;;;;1.80;1.70;;;-5.70;99.90;;;;;;5064634;28;20774;-77
2022/07/03 07:06:34;;;;;;;3.47;1.90;;;-10.70;99.90;;;;;;5063668;28;20323;-78
2022/07/03 07:08:59;;;;;;;3.13;2.57;;;-11.90;99.90;;;;;;5065492;28;20255;-76
2022/07/03 07:11:25;;;;;;;2.73;2.30;;;-11.20;99.90;;;;;;5064358;28;20207;-72
2022/07/03 07:13:51;;;;;;;1.73;1.63;;;-8.20;99.90;;;;;;5065397;28;20187;-70
2022/07/03 07:16:17;;;;;;;3.20;1.83;;;-6.90;99.90;;;;;;5065307;28;20178;-75
2022/07/03 07:18:43;;;;;;;3.30;2.23;;;-9.40;99.90;;;;;;5064614;28;20199;-78
2022/07/03 07:21:10;;;;;;;5.13;1.83;;;-10.10;99.90;;;;;;5063489;28;20175;-77
2022/07/03 07:23:36;;;;;;;3.30;3.00;;;-8.10;99.90;;;;;;5064820;28;20186;-78
2022/07/03 07:26:02;;;;;;;2.57;2.43;;;-5.90;99.90;;;;;;5065586;28;20217;-73
2022/07/03 07:28:28;;;;;;;2.70;2.07;;;-6.90;99.90;;;;;;5063191;28;20579;-69
2022/07/03 07:30:56;;;;;;;3.13;2.37;;;-12.30;99.90;;;;;;5065295;28;20254;-77
2022/07/03 07:33:22;;;;;;;3.93;2.23;;;-9.30;99.90;;;;;;5065116;28;20172;-73
2022/07/03 07:35:48;;;;;;;2.43;2.10;;;-11.50;99.90;;;;;;5063088;28;20271;-68
2022/07/03 07:38:14;;;;;;;6.67;2.50;;;-14.50;99.90;;;;;;5065301;28;20559;-69
2022/07/03 07:40:40;;;;;;;2.53;2.23;;;-12.00;99.90;;;;;;5064951;28;20222;-69
2022/07/03 07:43:06;;;;;;;2.50;2.13;;;-14.80;99.90;;;;;;5063816;28;20262;-72
2022/07/03 07:45:32;;;;;;;4.03;2.57;;;-11.00;99.90;;;;;;5063953;28;20182;-74
2022/07/03 07:47:58;;;;;;;3.60;3.30;;;-11.40;99.90;;;;;;5063752;28;20259;-71
2022/07/03 07:50:24;;;;;;;2.57;2.37;;;-9.50;99.90;;;;;;5062348;28;20276;-72
2022/07/03 07:52:49;;;;;;;3.03;2.63;;;-13.10;99.90;;;;;;5064091;28;20246;-74
2022/07/03 07:55:15;;;;;;;3.57;2.27;;;-12.90;99.90;;;;;;5064888;28;20606;-74
2022/07/03 07:57:41;;;;;;;10.67;3.30;;;-13.10;99.90;;;;;;5064346;28;20172;-74
2022/07/03 08:00:10;;;;;;;3.10;2.43;;;-11.20;99.90;;;;;;5064754;28;20180;-69
2022/07/03 08:05:35;;;;;;;3.33;2.57;;;-10.80;99.90;;;;;;5065294;28;20656;-70
2022/07/03 08:08:11;;;;;;;4.07;2.70;;;-10.50;99.90;;;;;;5063963;28;20190;-72
2022/07/03 08:10:47;;;;;;;2.70;2.50;;;-9.80;99.90;;;;;;5064536;28;20532;-72
2022/07/03 08:13:14;;;;;;;4.20;2.40;;;-14.60;99.90;;;;;;5062595;28;20253;-70
2022/07/03 08:15:41;;;;;;;5.87;2.70;;;-12.70;99.90;;;;;;5064669;28;20658;-71
2022/07/03 08:18:07;;;;;;;2.77;2.13;;;-15.30;99.90;;;;;;5065209;28;20618;-71
2022/07/03 08:20:35;;;;;;;3.27;2.97;;;-9.40;99.90;;;;;;5064110;28;20534;-71
2022/07/03 08:23:01;;;;;;;2.97;2.57;;;-15.50;99.90;;;;;;5064350;28;20176;-71
2022/07/03 08:25:27;;;;;;;5.27;3.70;;;-11.90;99.90;;;;;;5064566;28;20175;-69
2022/07/03 08:27:53;;;;;;;2.33;2.23;;;-12.60;99.90;;;;;;5063800;28;20192;-69
2022/07/03 08:30:19;;;;;;;4.57;3.17;;;-9.00;99.90;;;;;;5063387;28;20483;-76
2022/07/03 08:32:50;;;;;;;5.50;2.83;;;-19.70;99.90;;;;;;5065167;28;20175;-68
2022/07/03 08:35:17;;;;;;;2.60;2.50;;;-16.20;99.90;;;;;;5063860;28;20169;-72
2022/07/03 08:37:43;;;;;;;2.07;1.97;;;-13.80;99.90;;;;;;5063586;28;20264;-74
2022/07/03 08:40:14;;;;;;;4.50;2.13;;;-8.10;99.90;;;;;;5065135;28;20297;-73
2022/07/03 08:42:47;;;;;;;4.33;2.63;;;-12.90;99.90;;;;;;5064090;28;20171;-73
2022/07/03 08:45:20;;;;;;;3.00;2.77;;;-13.90;99.90;;;;;;5063029;28;20276;-75
2022/07/03 08:47:48;;;;;;;2.60;2.40;;;-8.10;99.90;;;;;;5063271;28;20176;-74
2022/07/03 08:50:18;;;;;;;3.03;2.37;;;-10.20;99.90;;;;;;5062139;28;20188;-72
2022/07/03 08:52:46;;;;;;;2.97;2.67;;;-8.60;99.90;;;;;;5062543;28;20174;-75
2022/07/03 08:55:16;;;;;;;3.50;2.63;;;-8.70;99.90;;;;;;5064394;28;20460;-81
2022/07/03 08:57:43;;;;;;;1.93;1.83;;;-7.60;99.90;;;;;;5064740;28;20195;-76
2022/07/03 09:00:15;;;;;;;1.70;1.60;;;-9.30;99.90;;;;;;5066771;28;20320;-78
2022/07/03 09:02:44;;;;;;;6.67;2.20;;;-13.20;99.90;;;;;;5066317;28;20168;-70
2022/07/03 09:05:11;;;;;;;2.93;2.23;;;-7.90;99.90;;;;;;5068554;28;20188;-68
2022/07/03 09:07:38;;;;;;;1.93;1.80;;;-8.30;99.90;;;;;;5068054;28;20176;-72
2022/07/03 09:10:09;;;;;;;3.50;1.57;;;-10.60;99.90;;;;;;5067287;28;20169;-76
2022/07/03 09:12:35;;;;;;;3.50;1.50;;;-13.80;99.90;;;;;;5068735;28;20241;-76
2022/07/03 09:15:04;;;;;;;6.50;1.87;;;-9.90;99.90;;;;;;5066219;28;20168;-69
2022/07/03 09:17:31;;;;;;;1.63;1.50;;;-9.60;99.90;;;;;;5066300;28;20242;-74
2022/07/03 09:20:03;;;;;;;1.60;1.50;;;-10.60;99.90;;;;;;5066054;28;20206;-71
2022/07/03 09:22:31;;;;;;;2.10;1.43;;;-13.40;99.90;;;;;;5066711;28;20172;-73
2022/07/03 09:25:27;;;;;;;3.23;1.40;;;-6.20;99.90;;;;;;5067413;28;20570;-69
2022/07/03 09:27:53;;;;;;;1.63;1.53;;;-14.50;99.90;;;;;;5055437;28;20184;-77
2022/07/03 09:30:19;;;;;;;2.83;1.13;;;-9.60;99.90;;;;;;5068063;28;20171;-72
2022/07/03 09:32:47;;;;;;;8.73;1.73;;;-12.50;99.90;;;;;;5067389;28;20169;-70
2022/07/03 09:35:24;;;;;;;4.23;1.93;;;-11.50;99.90;;;;;;5065214;28;20225;-80
2022/07/03 09:38:01;;;;;;;1.13;1.00;;;-12.10;99.90;;;;;;5066041;28;20187;-69
2022/07/03 09:40:48;;;;;;;1.57;0.97;;;-13.00;99.90;;;;;;5066405;28;20175;-71
2022/07/03 09:43:28;;;;;;;2.80;1.67;;;-11.60;99.90;;;;;;5099769;28;20539;-76
2022/07/03 09:46:00;;;;;;;1.83;1.60;;;-17.00;99.60;;;;;;5067034;28;20638;-72
2022/07/03 09:48:30;;;;;;;2.97;1.53;;;-11.00;99.90;;;;;;5066978;28;20194;-73
2022/07/03 09:51:19;;;;;;;2.00;1.30;;;-10.70;99.30;;;;;;5065941;28;20171;-69
2022/07/03 09:53:57;;;;;;;1.60;0.97;;;-9.10;99.90;;;;;;5059870;28;20206;-71
2022/07/03 09:56:28;;;;;;;0.93;0.93;;;-6.00;99.90;;;;;;5066710;28;20249;-71
2022/07/03 09:59:13;;;;;;;4.33;1.37;;;-7.20;99.90;;;;;;5067061;28;20319;-73
2022/07/03 10:01:44;;;;;;;1.93;1.33;;;-7.00;99.90;;;;;;5065114;28;20171;-76
2022/07/03 10:04:19;;;;;;;0.93;0.93;;;-3.90;99.90;;;;;;5067148;28;20602;-71
2022/07/03 10:06:54;;;;;;;2.90;1.33;;;-3.20;99.90;;;;;;5065243;28;20206;-73
2022/07/03 10:09:28;;;;;;;2.47;1.23;;;-5.30;99.90;;;;;;5065609;28;20473;-70
2022/07/03 10:11:55;;;;;;;3.77;1.63;;;-4.00;99.90;;;;;;5065837;28;20179;-69
2022/07/03 10:14:23;;;;;;;1.90;1.53;;;-5.20;99.90;;;;;;5067202;28;20413;-78
2022/07/03 10:16:49;;;;;;;2.73;1.00;;;-4.00;99.90;;;;;;5065986;28;20180;-75
2022/07/03 10:19:25;;;;;;;1.77;1.47;;;-5.80;99.90;;;;;;5066264;28;20210;-72
2022/07/03 10:21:53;;;;;;;2.43;1.27;;;-3.60;99.90;;;;;;5066657;28;20222;-74
2022/07/03 10:24:23;;;;;;;1.37;1.27;;;-2.50;99.90;;;;;;5063480;28;20164;-77
2022/07/03 10:26:50;;;;;;;1.13;1.00;;;-3.50;99.90;;;;;;5064976;28;20176;-76
2022/07/03 10:29:16;;;;;;;1.80;0.60;;;-7.20;99.70;;;;;;5066319;28;20237;-72
2022/07/03 10:31:48;;;;;;;1.50;0.77;;;-4.40;97.80;;;;;;5065620;28;20188;-77
2022/07/03 10:34:19;;;;;;;4.10;1.33;;;-4.10;96.50;;;;;;5065615;28;20477;-70
2022/07/03 10:36:48;;;;;;;1.07;1.00;;;-8.00;96.80;;;;;;5065638;28;20603;-70
2022/07/03 10:39:25;;;;;;;2.47;1.43;;;-4.60;98.20;;;;;;5065455;28;20191;-72
2022/07/03 10:45:04;;;;;;;2.30;0.73;;;-5.80;97.80;;;;;;5066838;28;20182;-69
2022/07/03 10:47:47;;;;;;;3.17;1.67;;;-6.30;97.60;;;;;;5065104;28;20538;-74
2022/07/03 10:50:17;;;;;;;0.93;0.83;;;-2.80;97.10;;;;;;5066231;28;20172;-69
2022/07/03 10:52:44;;;;;;;1.27;1.17;;;-8.00;94.90;;;;;;5064000;28;20164;-68
2022/07/03 10:55:11;;;;;;;1.20;1.13;;;-10.40;94.30;;;;;;5065769;28;20254;-73
2022/07/03 10:57:39;;;;;;;2.97;1.10;;;-9.30;92.70;;;;;;5066494;28;20192;-76
2022/07/03 11:00:12;;;;;;;0.80;0.80;;;-7.00;93.10;;;;;;5063456;28;20200;-76
2022/07/03 11:02:41;;;;;;;4.10;1.00;;;-2.60;95.50;;;;;;5064646;28;20176;-69
2022/07/03 11:05:13;;;;;;;1.37;1.27;;;-6.10;94.60;;;;;;5066098;28;20657;-75
2022/07/03 11:07:51;;;;;;;1.53;1.10;;;-3.20;95.30;;;;;;5065112;28;20191;-74
2022/07/03 11:10:17;;;;;;;1.10;1.03;;;-4.50;95.00;;;;;;5064416;28;20172;-71
2022/07/03 11:13:00;;;;;;;2.57;0.97;;;-1.60;95.30;;;;;;5064587;28;20246;-71
2022/07/03 11:15:43;;;;;;;2.90;1.23;;;-3.20;94.80;;;;;;5063502;28;20182;-70
2022/07/03 11:18:29;;;;;;;6.87;1.50;;;-6.50;93.50;;;;;;5064257;28;20510;-68
2022/07/03 11:20:58;;;;;;;1.17;1.10;;;-1.80;93.20;;;;;;5063879;28;20204;-69
2022/07/03 11:23:27;;;;;;;1.00;1.00;;;0.10;94.40;;;;;;5064140;28;20270;-74
2022/07/03 11:26:01;;;;;;;1.40;1.30;;;-2.60;94.20;;;;;;5064744;28;20174;-70
2022/07/03 11:28:33;;;;;;;2.07;1.77;;;-7.60;91.50;;;;;;5064729;28;20172;-69
2022/07/03 11:31:13;;;;;;;1.00;1.00;;;-7.30;92.20;;;;;;5063275;28;20493;-69
2022/07/03 11:33:45;;;;;;;2.67;1.20;;;-4.00;91.20;;;;;;5066284;28;20178;-71
2022/07/03 11:36:16;;;;;;;1.20;1.07;;;-1.90;91.70;;;;;;5064549;28;20266;-71
2022/07/03 11:38:48;;;;;;;2.07;1.67;;;-2.10;92.50;;;;;;5063996;28;20227;-73
2022/07/03 11:41:16;;;;;;;1.33;1.13;;;-1.10;93.20;;;;;;5063626;28;20210;-69
2022/07/03 11:43:59;;;;;;;6.47;1.73;;;-4.60;92.40;;;;;;5066201;28;20221;-72
2022/07/03 11:46:27;;;;;;;2.13;1.93;;;-8.10;90.60;;;;;;5066003;28;20642;-69
2022/07/03 11:49:14;;;;;;;2.70;0.90;;;-3.80;90.30;;;;;;5065093;28;20207;-71
2022/07/03 11:51:43;;;;;;;1.97;0.80;;;-8.40;87.30;;;;;;5064757;28;20180;-73
2022/07/03 11:54:09;;;;;;;1.10;1.10;;;-5.00;88.00;;;;;;5062992;28;20575;-77
2022/07/03 11:56:36;;;;;;;1.97;1.20;;;-14.00;83.60;;;;;;5064857;28;20181;-74
2022/07/03 11:59:05;;;;;;;1.10;0.80;;;-12.10;82.50;;;;;;5065650;28;20294;-78
2022/07/03 12:01:36;;;;;;;1.67;1.10;;;-11.90;82.40;;;;;;5063175;28;20567;-75
2022/07/03 12:04:06;;;;;;;2.13;0.70;;;-9.50;82.20;;;;;;5064197;28;20281;-70
2022/07/03 12:06:39;;;;;;;3.77;1.10;;;-6.60;82.20;;;;;;5065221;28;20175;-75
2022/07/03 12:09:22;;;;;;;1.33;1.23;;;-2.10;87.90;;;;;;5065530;28;20273;-74
2022/07/03 12:12:02;;;;;;;0.83;0.73;;;23.90;96.10;;;;;;5064425;28;20474;-71
2022/07/03 12:14:47;;;;;;;0.57;0.57;;;24.10;95.20;;;;;;5063869;28;20180;-85
2022/07/03 12:17:24;;;;;;;0.93;0.80;;;23.50;92.80;;;;;;5065301;28;20188;-85
2022/07/03 12:20:00;;;;;;;0.80;0.80;;;-4.00;77.40;;;;;;5064192;28;20289;-85
2022/07/03 12:22:31;;;;;;;2.10;0.60;;;-6.00;75.60;;;;;;5064306;28;20250;-86
2022/07/03 12:25:12;;;;;;;0.93;0.70;;;24.40;91.80;;;;;;5065844;28;20171;-76
2022/07/03 12:27:43;;;;;;;0.93;0.70;;;24.10;92.10;;;;;;5065413;28;20183;-82
2022/07/03 12:30:22;;;;;;;0.63;0.63;;;24.30;92.00;;;;;;5063694;28;20172;-75
2022/07/03 12:32:48;;;;;;;1.20;0.80;;;-8.30;71.00;;;;;;5068788;28;20172;-71
2022/07/03 12:35:21;;;;;;;0.93;0.70;;;-4.60;73.80;;;;;;5068676;28;20503;-69
2022/07/03 12:37:48;;;;;;;1.10;0.87;;;-4.40;76.30;;;;;;5068844;28;20591;-69
2022/07/03 12:40:14;;;;;;;2.00;0.90;;;-5.40;74.70;;;;;;5066999;28;20184;-72
2022/07/03 12:42:51;;;;;;;1.07;1.07;;;-5.10;77.20;;;;;;5067598;28;20571;-71
2022/07/03 12:45:18;;;;;;;2.00;0.63;;;-2.70;78.10;;;;;;5100411;28;20179;-70
2022/07/03 12:47:45;;;;;;;0.63;0.63;;;-5.30;69.20;;;;;;5067150;28;20167;-71
2022/07/03 12:50:12;;;;;;;1.57;0.73;;;-5.30;68.70;;;;;;5067166;28;20187;-72
2022/07/03 12:52:52;;;;;;;0.70;0.60;;;-11.80;64.90;;;;;;5067985;28;20202;-71
2022/07/03 12:55:27;;;;;;;1.13;0.97;;;-7.40;66.70;;;;;;5068197;28;20176;-71
2022/07/03 13:00:56;;;;;;;3.93;1.53;;;-1.10;75.60;;;;;;5067847;28;20179;-70
2022/07/03 13:03:34;;;;;;;1.77;0.97;;;-3.60;74.10;;;;;;5066536;28;20184;-83
2022/07/03 13:05:59;;;;;;;0.60;0.60;;;1.60;77.20;;;;;;5068021;28;20247;-73
2022/07/03 13:08:25;;;;;;;1.43;1.13;;;-2.20;75.40;;;;;;5066720;28;20286;-71
2022/07/03 13:10:55;;;;;;;1.10;1.00;;;23.10;89.10;;;;;;5068742;28;20579;-74